sensor_id;sensor_type;location;lat;lon;timestamp;P1;durP1;ratioP1;P2;durP2;ratioP2
78312;SDS011;67568;47.438;21.408;2023-03-21T00:00:27;33.78;;;19.88;;
78312;SDS011;67568;47.438;21.408;2023-03-21T00:02:54;29.73;;;18.63;;
78312;SDS011;67568;47.438;21.408;2023-03-21T00:05:21;32.50;;;19.13;;
78312;SDS011;67568;47.438;21.408;2023-03-21T00:07:48;33.17;;;18.40;;
78312;SDS011;67568;47.438;21.408;2023-03-21T00:10:14;31.95;;;18.20;;
78312;SDS011;67568;47.438;21.408;2023-03-21T00:12:55;33.65;;;18.35;;
78312;SDS011;67568;47.438;21.408;2023-03-21T00:15:21;31.75;;;18.02;;
78312;SDS011;67568;47.438;21.408;2023-03-21T00:17:56;31.20;;;17.88;;
78312;SDS011;67568;47.438;21.408;2023-03-21T00:20:22;34.73;;;18.10;;
78312;SDS011;67568;47.438;21.408;2023-03-21T00:22:49;36.38;;;19.33;;
78312;SDS011;67568;47.438;21.408;2023-03-21T00:25:16;33.15;;;19.08;;
78312;SDS011;67568;47.438;21.408;2023-03-21T00:27:42;37.45;;;19.42;;
78312;SDS011;67568;47.438;21.408;2023-03-21T00:30:29;37.17;;;19.80;;
78312;SDS011;67568;47.438;21.408;2023-03-21T00:32:56;36.00;;;20.23;;
78312;SDS011;67568;47.438;21.408;2023-03-21T00:35:26;39.60;;;22.15;;
78312;SDS011;67568;47.438;21.408;2023-03-21T00:38:13;39.40;;;22.52;;
78312;SDS011;67568;47.438;21.408;2023-03-21T00:40:40;43.67;;;22.45;;
78312;SDS011;67568;47.438;21.408;2023-03-21T00:43:14;56.78;;;25.65;;
78312;SDS011;67568;47.438;21.408;2023-03-21T00:45:42;74.03;;;30.30;;
78312;SDS011;67568;47.438;21.408;2023-03-21T00:48:10;78.28;;;30.85;;
78312;SDS011;67568;47.438;21.408;2023-03-21T00:50:38;73.10;;;33.88;;
78312;SDS011;67568;47.438;21.408;2023-03-21T00:53:05;73.55;;;31.67;;
78312;SDS011;67568;47.438;21.408;2023-03-21T00:55:32;75.15;;;31.70;;
78312;SDS011;67568;47.438;21.408;2023-03-21T00:57:59;70.43;;;30.57;;
78312;SDS011;67568;47.438;21.408;2023-03-21T01:00:27;73.18;;;31.67;;
78312;SDS011;67568;47.438;21.408;2023-03-21T01:02:55;70.57;;;31.27;;
78312;SDS011;67568;47.438;21.408;2023-03-21T01:05:35;68.43;;;30.58;;
78312;SDS011;67568;47.438;21.408;2023-03-21T01:08:05;65.63;;;31.13;;
78312;SDS011;67568;47.438;21.408;2023-03-21T01:10:49;66.23;;;30.90;;
78312;SDS011;67568;47.438;21.408;2023-03-21T01:13:17;67.57;;;30.98;;
78312;SDS011;67568;47.438;21.408;2023-03-21T01:15:47;63.55;;;29.83;;
78312;SDS011;67568;47.438;21.408;2023-03-21T01:18:22;58.10;;;28.60;;
78312;SDS011;67568;47.438;21.408;2023-03-21T01:20:51;53.47;;;25.60;;
78312;SDS011;67568;47.438;21.408;2023-03-21T01:23:19;42.73;;;23.83;;
78312;SDS011;67568;47.438;21.408;2023-03-21T01:25:46;42.65;;;23.42;;
78312;SDS011;67568;47.438;21.408;2023-03-21T01:28:14;46.03;;;24.50;;
78312;SDS011;67568;47.438;21.408;2023-03-21T01:30:45;138.68;;;63.10;;
78312;SDS011;67568;47.438;21.408;2023-03-21T01:33:13;97.57;;;48.28;;
78312;SDS011;67568;47.438;21.408;2023-03-21T01:35:40;43.57;;;22.30;;
78312;SDS011;67568;47.438;21.408;2023-03-21T01:38:20;36.45;;;21.02;;
78312;SDS011;67568;47.438;21.408;2023-03-21T01:40:47;31.60;;;17.85;;
78312;SDS011;67568;47.438;21.408;2023-03-21T01:43:28;31.45;;;18.67;;
78312;SDS011;67568;47.438;21.408;2023-03-21T01:46:15;34.75;;;18.75;;
78312;SDS011;67568;47.438;21.408;2023-03-21T01:48:47;27.17;;;17.40;;
78312;SDS011;67568;47.438;21.408;2023-03-21T01:51:28;27.15;;;15.18;;
78312;SDS011;67568;47.438;21.408;2023-03-21T01:53:57;30.52;;;17.67;;
78312;SDS011;67568;47.438;21.408;2023-03-21T01:56:28;25.35;;;15.52;;
78312;SDS011;67568;47.438;21.408;2023-03-21T01:59:00;26.33;;;15.63;;
78312;SDS011;67568;47.438;21.408;2023-03-21T02:01:32;26.47;;;15.57;;
78312;SDS011;67568;47.438;21.408;2023-03-21T02:04:00;24.75;;;15.68;;
78312;SDS011;67568;47.438;21.408;2023-03-21T02:06:29;26.52;;;15.15;;
78312;SDS011;67568;47.438;21.408;2023-03-21T02:09:03;27.48;;;16.83;;
78312;SDS011;67568;47.438;21.408;2023-03-21T02:11:35;28.17;;;16.40;;
78312;SDS011;67568;47.438;21.408;2023-03-21T02:14:03;29.03;;;16.03;;
78312;SDS011;67568;47.438;21.408;2023-03-21T02:28:20;29.37;;;16.53;;
78312;SDS011;67568;47.438;21.408;2023-03-21T02:31:29;31.10;;;16.55;;
78312;SDS011;67568;47.438;21.408;2023-03-21T02:36:47;28.58;;;16.33;;
78312;SDS011;67568;47.438;21.408;2023-03-21T02:42:36;29.47;;;18.53;;
78312;SDS011;67568;47.438;21.408;2023-03-21T02:45:26;30.90;;;19.20;;
78312;SDS011;67568;47.438;21.408;2023-03-21T02:48:00;27.88;;;18.08;;
78312;SDS011;67568;47.438;21.408;2023-03-21T02:52:58;33.67;;;19.90;;
78312;SDS011;67568;47.438;21.408;2023-03-21T02:55:32;32.30;;;18.47;;
78312;SDS011;67568;47.438;21.408;2023-03-21T02:58:01;32.75;;;18.45;;
78312;SDS011;67568;47.438;21.408;2023-03-21T03:00:38;29.92;;;17.52;;
78312;SDS011;67568;47.438;21.408;2023-03-21T03:03:05;31.95;;;17.73;;
78312;SDS011;67568;47.438;21.408;2023-03-21T03:05:42;29.27;;;17.88;;
78312;SDS011;67568;47.438;21.408;2023-03-21T03:08:26;28.40;;;16.80;;
78312;SDS011;67568;47.438;21.408;2023-03-21T03:11:28;30.25;;;17.85;;
78312;SDS011;67568;47.438;21.408;2023-03-21T03:25:21;40.30;;;22.73;;
78312;SDS011;67568;47.438;21.408;2023-03-21T03:28:07;39.90;;;24.05;;
78312;SDS011;67568;47.438;21.408;2023-03-21T03:30:36;37.30;;;20.10;;
78312;SDS011;67568;47.438;21.408;2023-03-21T03:33:16;32.58;;;19.65;;
78312;SDS011;67568;47.438;21.408;2023-03-21T03:35:45;32.20;;;19.63;;
78312;SDS011;67568;47.438;21.408;2023-03-21T03:38:24;32.33;;;19.05;;
78312;SDS011;67568;47.438;21.408;2023-03-21T03:40:54;32.92;;;19.10;;
78312;SDS011;67568;47.438;21.408;2023-03-21T03:43:35;30.65;;;19.80;;
78312;SDS011;67568;47.438;21.408;2023-03-21T03:46:10;29.20;;;18.83;;
78312;SDS011;67568;47.438;21.408;2023-03-21T03:49:04;31.03;;;18.93;;
78312;SDS011;67568;47.438;21.408;2023-03-21T03:51:38;28.95;;;18.25;;
78312;SDS011;67568;47.438;21.408;2023-03-21T03:54:31;31.38;;;18.95;;
78312;SDS011;67568;47.438;21.408;2023-03-21T03:57:02;28.80;;;18.27;;
78312;SDS011;67568;47.438;21.408;2023-03-21T03:59:32;32.63;;;20.08;;
78312;SDS011;67568;47.438;21.408;2023-03-21T04:02:00;31.57;;;19.73;;
78312;SDS011;67568;47.438;21.408;2023-03-21T04:04:27;33.85;;;20.55;;
78312;SDS011;67568;47.438;21.408;2023-03-21T04:06:54;37.28;;;22.90;;
78312;SDS011;67568;47.438;21.408;2023-03-21T04:09:23;35.78;;;22.42;;
78312;SDS011;67568;47.438;21.408;2023-03-21T04:12:08;43.33;;;23.08;;
78312;SDS011;67568;47.438;21.408;2023-03-21T04:14:35;35.53;;;22.07;;
78312;SDS011;67568;47.438;21.408;2023-03-21T04:17:10;34.65;;;20.85;;
78312;SDS011;67568;47.438;21.408;2023-03-21T04:19:36;33.63;;;19.58;;
78312;SDS011;67568;47.438;21.408;2023-03-21T04:22:03;33.70;;;21.67;;
78312;SDS011;67568;47.438;21.408;2023-03-21T04:24:29;36.25;;;20.95;;
78312;SDS011;67568;47.438;21.408;2023-03-21T04:26:56;38.30;;;22.67;;
78312;SDS011;67568;47.438;21.408;2023-03-21T04:29:23;40.42;;;22.27;;
78312;SDS011;67568;47.438;21.408;2023-03-21T04:31:49;39.15;;;22.83;;
78312;SDS011;67568;47.438;21.408;2023-03-21T04:34:16;39.70;;;22.13;;
78312;SDS011;67568;47.438;21.408;2023-03-21T04:36:42;31.15;;;19.23;;
78312;SDS011;67568;47.438;21.408;2023-03-21T04:39:09;34.97;;;19.80;;
78312;SDS011;67568;47.438;21.408;2023-03-21T04:41:36;33.90;;;19.65;;
78312;SDS011;67568;47.438;21.408;2023-03-21T04:44:04;32.50;;;19.73;;
78312;SDS011;67568;47.438;21.408;2023-03-21T04:46:31;36.35;;;20.92;;
78312;SDS011;67568;47.438;21.408;2023-03-21T04:48:57;33.90;;;21.35;;
78312;SDS011;67568;47.438;21.408;2023-03-21T04:51:24;37.20;;;21.00;;
78312;SDS011;67568;47.438;21.408;2023-03-21T04:53:51;37.28;;;21.27;;
78312;SDS011;67568;47.438;21.408;2023-03-21T04:56:18;35.28;;;19.25;;
78312;SDS011;67568;47.438;21.408;2023-03-21T04:58:44;35.47;;;19.48;;
78312;SDS011;67568;47.438;21.408;2023-03-21T05:01:11;34.90;;;20.00;;
78312;SDS011;67568;47.438;21.408;2023-03-21T05:03:38;35.57;;;23.10;;
78312;SDS011;67568;47.438;21.408;2023-03-21T05:06:06;52.80;;;25.55;;
78312;SDS011;67568;47.438;21.408;2023-03-21T05:08:36;43.58;;;24.85;;
78312;SDS011;67568;47.438;21.408;2023-03-21T05:11:03;48.05;;;22.00;;
78312;SDS011;67568;47.438;21.408;2023-03-21T05:13:30;36.03;;;22.27;;
78312;SDS011;67568;47.438;21.408;2023-03-21T05:15:57;35.83;;;20.60;;
78312;SDS011;67568;47.438;21.408;2023-03-21T05:18:23;34.45;;;20.33;;
78312;SDS011;67568;47.438;21.408;2023-03-21T05:20:51;38.17;;;21.40;;
78312;SDS011;67568;47.438;21.408;2023-03-21T05:23:19;33.05;;;20.52;;
78312;SDS011;67568;47.438;21.408;2023-03-21T05:25:46;36.97;;;20.67;;
78312;SDS011;67568;47.438;21.408;2023-03-21T05:28:13;32.40;;;20.60;;
78312;SDS011;67568;47.438;21.408;2023-03-21T05:30:40;33.75;;;21.55;;
78312;SDS011;67568;47.438;21.408;2023-03-21T05:33:06;37.03;;;22.55;;
78312;SDS011;67568;47.438;21.408;2023-03-21T05:35:33;46.28;;;23.10;;
78312;SDS011;67568;47.438;21.408;2023-03-21T05:38:00;48.75;;;27.48;;
78312;SDS011;67568;47.438;21.408;2023-03-21T05:40:26;39.67;;;23.53;;
78312;SDS011;67568;47.438;21.408;2023-03-21T05:42:53;37.42;;;23.75;;
78312;SDS011;67568;47.438;21.408;2023-03-21T05:45:20;36.55;;;22.88;;
78312;SDS011;67568;47.438;21.408;2023-03-21T05:47:46;40.28;;;21.95;;
78312;SDS011;67568;47.438;21.408;2023-03-21T05:50:13;42.08;;;22.88;;
78312;SDS011;67568;47.438;21.408;2023-03-21T05:52:40;37.17;;;22.60;;
78312;SDS011;67568;47.438;21.408;2023-03-21T05:55:06;42.65;;;22.80;;
78312;SDS011;67568;47.438;21.408;2023-03-21T05:57:33;40.45;;;23.00;;
78312;SDS011;67568;47.438;21.408;2023-03-21T06:00:00;38.13;;;22.80;;
78312;SDS011;67568;47.438;21.408;2023-03-21T06:02:27;43.22;;;23.42;;
78312;SDS011;67568;47.438;21.408;2023-03-21T06:04:54;40.43;;;22.77;;
78312;SDS011;67568;47.438;21.408;2023-03-21T06:07:20;39.35;;;22.73;;
78312;SDS011;67568;47.438;21.408;2023-03-21T06:09:47;36.45;;;22.73;;
78312;SDS011;67568;47.438;21.408;2023-03-21T06:12:13;44.35;;;24.20;;
78312;SDS011;67568;47.438;21.408;2023-03-21T06:14:40;39.33;;;23.13;;
78312;SDS011;67568;47.438;21.408;2023-03-21T06:17:06;42.30;;;24.27;;
78312;SDS011;67568;47.438;21.408;2023-03-21T06:19:33;38.40;;;23.52;;
78312;SDS011;67568;47.438;21.408;2023-03-21T06:22:00;41.30;;;23.70;;
78312;SDS011;67568;47.438;21.408;2023-03-21T06:24:26;36.05;;;23.25;;
78312;SDS011;67568;47.438;21.408;2023-03-21T06:26:53;37.38;;;23.52;;
78312;SDS011;67568;47.438;21.408;2023-03-21T06:29:19;41.63;;;21.83;;
78312;SDS011;67568;47.438;21.408;2023-03-21T06:31:46;39.10;;;21.42;;
78312;SDS011;67568;47.438;21.408;2023-03-21T06:34:13;52.78;;;25.23;;
78312;SDS011;67568;47.438;21.408;2023-03-21T06:36:39;50.50;;;26.45;;
78312;SDS011;67568;47.438;21.408;2023-03-21T06:39:06;43.55;;;22.88;;
78312;SDS011;67568;47.438;21.408;2023-03-21T06:41:35;54.17;;;25.60;;
78312;SDS011;67568;47.438;21.408;2023-03-21T06:44:02;47.28;;;25.52;;
78312;SDS011;67568;47.438;21.408;2023-03-21T06:46:33;44.05;;;24.27;;
78312;SDS011;67568;47.438;21.408;2023-03-21T06:49:00;41.47;;;24.02;;
78312;SDS011;67568;47.438;21.408;2023-03-21T06:51:29;46.85;;;25.00;;
78312;SDS011;67568;47.438;21.408;2023-03-21T06:53:57;41.77;;;23.97;;
78312;SDS011;67568;47.438;21.408;2023-03-21T06:56:24;41.47;;;23.83;;
78312;SDS011;67568;47.438;21.408;2023-03-21T06:58:51;38.55;;;23.13;;
78312;SDS011;67568;47.438;21.408;2023-03-21T07:01:18;36.90;;;22.23;;
78312;SDS011;67568;47.438;21.408;2023-03-21T07:03:44;37.22;;;22.02;;
78312;SDS011;67568;47.438;21.408;2023-03-21T07:06:11;38.87;;;22.40;;
78312;SDS011;67568;47.438;21.408;2023-03-21T07:08:38;44.13;;;23.15;;
78312;SDS011;67568;47.438;21.408;2023-03-21T07:11:06;39.50;;;23.83;;
78312;SDS011;67568;47.438;21.408;2023-03-21T07:13:34;37.30;;;21.08;;
78312;SDS011;67568;47.438;21.408;2023-03-21T07:16:01;33.88;;;20.02;;
78312;SDS011;67568;47.438;21.408;2023-03-21T07:18:29;38.47;;;21.47;;
78312;SDS011;67568;47.438;21.408;2023-03-21T07:20:55;38.00;;;21.40;;
78312;SDS011;67568;47.438;21.408;2023-03-21T07:23:23;34.05;;;21.15;;
78312;SDS011;67568;47.438;21.408;2023-03-21T07:25:53;39.03;;;21.83;;
78312;SDS011;67568;47.438;21.408;2023-03-21T07:28:20;39.10;;;22.77;;
78312;SDS011;67568;47.438;21.408;2023-03-21T07:30:52;33.60;;;20.77;;
78312;SDS011;67568;47.438;21.408;2023-03-21T07:33:21;34.55;;;20.45;;
78312;SDS011;67568;47.438;21.408;2023-03-21T07:35:49;37.33;;;21.40;;
78312;SDS011;67568;47.438;21.408;2023-03-21T07:38:16;32.30;;;21.00;;
78312;SDS011;67568;47.438;21.408;2023-03-21T07:40:44;33.45;;;21.52;;
78312;SDS011;67568;47.438;21.408;2023-03-21T07:43:11;34.50;;;21.13;;
78312;SDS011;67568;47.438;21.408;2023-03-21T07:45:38;35.08;;;22.63;;
78312;SDS011;67568;47.438;21.408;2023-03-21T07:48:05;34.75;;;20.73;;
78312;SDS011;67568;47.438;21.408;2023-03-21T07:50:32;32.47;;;20.70;;
78312;SDS011;67568;47.438;21.408;2023-03-21T07:52:59;35.95;;;20.92;;
78312;SDS011;67568;47.438;21.408;2023-03-21T07:55:28;32.37;;;20.87;;
78312;SDS011;67568;47.438;21.408;2023-03-21T07:57:54;33.90;;;20.17;;
78312;SDS011;67568;47.438;21.408;2023-03-21T08:00:21;34.08;;;20.73;;
78312;SDS011;67568;47.438;21.408;2023-03-21T08:02:51;34.55;;;19.83;;
78312;SDS011;67568;47.438;21.408;2023-03-21T08:05:28;31.25;;;19.00;;
78312;SDS011;67568;47.438;21.408;2023-03-21T08:07:58;36.83;;;19.83;;
78312;SDS011;67568;47.438;21.408;2023-03-21T08:10:25;30.20;;;19.00;;
78312;SDS011;67568;47.438;21.408;2023-03-21T08:12:52;30.67;;;19.30;;
78312;SDS011;67568;47.438;21.408;2023-03-21T08:15:19;31.27;;;20.15;;
78312;SDS011;67568;47.438;21.408;2023-03-21T08:17:46;34.92;;;20.58;;
78312;SDS011;67568;47.438;21.408;2023-03-21T08:20:14;35.57;;;19.63;;
78312;SDS011;67568;47.438;21.408;2023-03-21T08:22:43;34.65;;;20.15;;
78312;SDS011;67568;47.438;21.408;2023-03-21T08:25:10;31.20;;;18.83;;
78312;SDS011;67568;47.438;21.408;2023-03-21T08:27:41;29.73;;;19.35;;
78312;SDS011;67568;47.438;21.408;2023-03-21T08:30:09;34.75;;;19.58;;
78312;SDS011;67568;47.438;21.408;2023-03-21T08:32:38;30.63;;;19.23;;
78312;SDS011;67568;47.438;21.408;2023-03-21T08:35:05;29.77;;;18.92;;
78312;SDS011;67568;47.438;21.408;2023-03-21T08:37:34;34.35;;;19.10;;
78312;SDS011;67568;47.438;21.408;2023-03-21T08:40:02;29.92;;;19.25;;
78312;SDS011;67568;47.438;21.408;2023-03-21T08:42:30;27.60;;;17.60;;
78312;SDS011;67568;47.438;21.408;2023-03-21T08:44:57;33.83;;;18.17;;
78312;SDS011;67568;47.438;21.408;2023-03-21T08:47:23;33.20;;;17.60;;
78312;SDS011;67568;47.438;21.408;2023-03-21T08:49:50;29.33;;;16.73;;
78312;SDS011;67568;47.438;21.408;2023-03-21T08:52:16;31.48;;;16.60;;
78312;SDS011;67568;47.438;21.408;2023-03-21T08:54:46;27.52;;;17.75;;
78312;SDS011;67568;47.438;21.408;2023-03-21T08:57:14;30.80;;;18.17;;
78312;SDS011;67568;47.438;21.408;2023-03-21T08:59:44;28.65;;;16.95;;
78312;SDS011;67568;47.438;21.408;2023-03-21T09:02:14;26.02;;;15.65;;
78312;SDS011;67568;47.438;21.408;2023-03-21T09:04:42;26.85;;;16.05;;
78312;SDS011;67568;47.438;21.408;2023-03-21T09:07:10;30.38;;;16.42;;
78312;SDS011;67568;47.438;21.408;2023-03-21T09:09:37;23.13;;;15.43;;
78312;SDS011;67568;47.438;21.408;2023-03-21T09:12:04;31.92;;;16.25;;
78312;SDS011;67568;47.438;21.408;2023-03-21T09:14:31;28.17;;;16.65;;
78312;SDS011;67568;47.438;21.408;2023-03-21T09:16:58;26.00;;;16.27;;
78312;SDS011;67568;47.438;21.408;2023-03-21T09:19:24;25.23;;;14.90;;
78312;SDS011;67568;47.438;21.408;2023-03-21T09:21:51;29.10;;;16.00;;
78312;SDS011;67568;47.438;21.408;2023-03-21T09:24:18;27.45;;;14.82;;
78312;SDS011;67568;47.438;21.408;2023-03-21T09:26:45;27.35;;;15.30;;
78312;SDS011;67568;47.438;21.408;2023-03-21T09:29:12;20.95;;;13.68;;
78312;SDS011;67568;47.438;21.408;2023-03-21T09:31:39;19.67;;;13.07;;
78312;SDS011;67568;47.438;21.408;2023-03-21T09:34:05;22.30;;;13.90;;
78312;SDS011;67568;47.438;21.408;2023-03-21T09:36:32;21.38;;;13.68;;
78312;SDS011;67568;47.438;21.408;2023-03-21T09:38:59;24.88;;;14.40;;
78312;SDS011;67568;47.438;21.408;2023-03-21T09:44:21;20.73;;;13.88;;
78312;SDS011;67568;47.438;21.408;2023-03-21T09:49:59;22.02;;;13.30;;
78312;SDS011;67568;47.438;21.408;2023-03-21T09:52:45;20.40;;;11.38;;
78312;SDS011;67568;47.438;21.408;2023-03-21T09:55:19;18.90;;;11.80;;
78312;SDS011;67568;47.438;21.408;2023-03-21T10:00:48;16.13;;;10.53;;
78312;SDS011;67568;47.438;21.408;2023-03-21T10:03:23;16.08;;;11.00;;
78312;SDS011;67568;47.438;21.408;2023-03-21T10:05:55;17.00;;;10.35;;
78312;SDS011;67568;47.438;21.408;2023-03-21T10:08:25;23.35;;;11.50;;
78312;SDS011;67568;47.438;21.408;2023-03-21T10:10:59;19.35;;;10.27;;
78312;SDS011;67568;47.438;21.408;2023-03-21T10:13:33;15.47;;;10.33;;
78312;SDS011;67568;47.438;21.408;2023-03-21T10:16:20;16.65;;;10.55;;
78312;SDS011;67568;47.438;21.408;2023-03-21T10:18:52;16.13;;;9.45;;
78312;SDS011;67568;47.438;21.408;2023-03-21T10:21:21;15.02;;;9.35;;
78312;SDS011;67568;47.438;21.408;2023-03-21T10:24:10;17.27;;;10.27;;
78312;SDS011;67568;47.438;21.408;2023-03-21T10:26:40;15.50;;;9.00;;
78312;SDS011;67568;47.438;21.408;2023-03-21T10:29:09;15.80;;;9.55;;
78312;SDS011;67568;47.438;21.408;2023-03-21T10:31:43;17.83;;;10.82;;
78312;SDS011;67568;47.438;21.408;2023-03-21T10:34:32;15.70;;;9.73;;
78312;SDS011;67568;47.438;21.408;2023-03-21T10:37:11;17.10;;;9.63;;
78312;SDS011;67568;47.438;21.408;2023-03-21T10:39:40;14.27;;;9.23;;
78312;SDS011;67568;47.438;21.408;2023-03-21T10:42:18;15.05;;;9.55;;
78312;SDS011;67568;47.438;21.408;2023-03-21T10:44:48;15.40;;;9.75;;
78312;SDS011;67568;47.438;21.408;2023-03-21T10:47:24;16.40;;;9.32;;
78312;SDS011;67568;47.438;21.408;2023-03-21T10:49:53;16.27;;;9.43;;
78312;SDS011;67568;47.438;21.408;2023-03-21T10:52:45;14.73;;;8.93;;
78312;SDS011;67568;47.438;21.408;2023-03-21T10:57:44;14.55;;;8.82;;
78312;SDS011;67568;47.438;21.408;2023-03-21T11:00:17;13.82;;;8.95;;
78312;SDS011;67568;47.438;21.408;2023-03-21T11:02:47;13.82;;;8.52;;
78312;SDS011;67568;47.438;21.408;2023-03-21T11:05:20;15.10;;;9.00;;
78312;SDS011;67568;47.438;21.408;2023-03-21T11:08:04;15.38;;;9.05;;
78312;SDS011;67568;47.438;21.408;2023-03-21T11:10:38;12.30;;;8.38;;
78312;SDS011;67568;47.438;21.408;2023-03-21T11:13:32;12.75;;;8.20;;
78312;SDS011;67568;47.438;21.408;2023-03-21T11:16:23;12.68;;;8.18;;
78312;SDS011;67568;47.438;21.408;2023-03-21T11:19:01;14.30;;;8.67;;
78312;SDS011;67568;47.438;21.408;2023-03-21T11:21:36;13.77;;;8.57;;
78312;SDS011;67568;47.438;21.408;2023-03-21T11:24:04;16.17;;;8.90;;
78312;SDS011;67568;47.438;21.408;2023-03-21T11:26:34;16.38;;;9.15;;
78312;SDS011;67568;47.438;21.408;2023-03-21T11:32:19;15.87;;;8.33;;
78312;SDS011;67568;47.438;21.408;2023-03-21T11:35:14;15.93;;;8.32;;
78312;SDS011;67568;47.438;21.408;2023-03-21T11:37:52;13.63;;;8.10;;
78312;SDS011;67568;47.438;21.408;2023-03-21T11:40:21;14.60;;;8.77;;
78312;SDS011;67568;47.438;21.408;2023-03-21T11:42:58;15.55;;;9.63;;
78312;SDS011;67568;47.438;21.408;2023-03-21T11:45:56;14.17;;;8.67;;
78312;SDS011;67568;47.438;21.408;2023-03-21T11:48:24;13.50;;;8.30;;
78312;SDS011;67568;47.438;21.408;2023-03-21T11:50:54;15.77;;;9.25;;
78312;SDS011;67568;47.438;21.408;2023-03-21T11:53:35;15.35;;;8.57;;
78312;SDS011;67568;47.438;21.408;2023-03-21T11:56:15;14.43;;;8.48;;
78312;SDS011;67568;47.438;21.408;2023-03-21T12:04:38;12.57;;;7.53;;
78312;SDS011;67568;47.438;21.408;2023-03-21T12:09:43;23.83;;;7.40;;
78312;SDS011;67568;47.438;21.408;2023-03-21T12:25:59;21.27;;;7.37;;
78312;SDS011;67568;47.438;21.408;2023-03-21T12:39:31;19.23;;;8.23;;
78312;SDS011;67568;47.438;21.408;2023-03-21T12:45:10;19.80;;;8.60;;
78312;SDS011;67568;47.438;21.408;2023-03-21T12:48:11;18.50;;;8.25;;
78312;SDS011;67568;47.438;21.408;2023-03-21T12:50:39;14.48;;;8.40;;
78312;SDS011;67568;47.438;21.408;2023-03-21T12:55:58;16.02;;;8.23;;
78312;SDS011;67568;47.438;21.408;2023-03-21T12:58:30;14.27;;;6.95;;
78312;SDS011;67568;47.438;21.408;2023-03-21T13:01:08;12.52;;;7.18;;
78312;SDS011;67568;47.438;21.408;2023-03-21T13:06:17;14.50;;;7.33;;
78312;SDS011;67568;47.438;21.408;2023-03-21T13:09:09;13.02;;;7.57;;
78312;SDS011;67568;47.438;21.408;2023-03-21T13:11:44;16.45;;;8.30;;
78312;SDS011;67568;47.438;21.408;2023-03-21T13:14:14;10.95;;;7.13;;
78312;SDS011;67568;47.438;21.408;2023-03-21T13:16:50;15.32;;;7.70;;
78312;SDS011;67568;47.438;21.408;2023-03-21T13:19:28;13.30;;;8.13;;
78312;SDS011;67568;47.438;21.408;2023-03-21T13:27:35;25.85;;;10.10;;
78312;SDS011;67568;47.438;21.408;2023-03-21T13:32:40;15.50;;;8.60;;
78312;SDS011;67568;47.438;21.408;2023-03-21T13:37:51;15.10;;;7.93;;
78312;SDS011;67568;47.438;21.408;2023-03-21T13:40:26;14.40;;;7.97;;
78312;SDS011;67568;47.438;21.408;2023-03-21T13:43:00;13.48;;;7.68;;
78312;SDS011;67568;47.438;21.408;2023-03-21T13:45:29;17.27;;;7.13;;
78312;SDS011;67568;47.438;21.408;2023-03-21T13:48:27;14.45;;;7.88;;
78312;SDS011;67568;47.438;21.408;2023-03-21T13:51:00;12.57;;;7.43;;
78312;SDS011;67568;47.438;21.408;2023-03-21T13:53:32;13.95;;;8.10;;
78312;SDS011;67568;47.438;21.408;2023-03-21T13:56:07;13.32;;;8.07;;
78312;SDS011;67568;47.438;21.408;2023-03-21T14:03:35;17.85;;;8.27;;
78312;SDS011;67568;47.438;21.408;2023-03-21T14:06:03;16.13;;;7.93;;
78312;SDS011;67568;47.438;21.408;2023-03-21T14:08:33;14.40;;;8.10;;
78312;SDS011;67568;47.438;21.408;2023-03-21T14:11:05;16.30;;;8.27;;
78312;SDS011;67568;47.438;21.408;2023-03-21T14:13:34;12.10;;;8.38;;
78312;SDS011;67568;47.438;21.408;2023-03-21T14:16:15;11.95;;;7.75;;
78312;SDS011;67568;47.438;21.408;2023-03-21T14:18:45;17.40;;;8.07;;
78312;SDS011;67568;47.438;21.408;2023-03-21T14:21:25;12.93;;;7.22;;
78312;SDS011;67568;47.438;21.408;2023-03-21T14:24:04;14.50;;;7.90;;
78312;SDS011;67568;47.438;21.408;2023-03-21T14:26:37;13.73;;;7.25;;
78312;SDS011;67568;47.438;21.408;2023-03-21T14:29:07;17.38;;;8.15;;
78312;SDS011;67568;47.438;21.408;2023-03-21T14:31:51;14.23;;;7.80;;
78312;SDS011;67568;47.438;21.408;2023-03-21T14:34:19;17.20;;;8.23;;
78312;SDS011;67568;47.438;21.408;2023-03-21T14:36:48;13.10;;;7.83;;
78312;SDS011;67568;47.438;21.408;2023-03-21T14:39:27;19.27;;;7.53;;
78312;SDS011;67568;47.438;21.408;2023-03-21T14:42:00;12.88;;;6.80;;
78312;SDS011;67568;47.438;21.408;2023-03-21T14:47:21;17.33;;;8.05;;
78312;SDS011;67568;47.438;21.408;2023-03-21T14:49:50;12.43;;;7.23;;
78312;SDS011;67568;47.438;21.408;2023-03-21T14:52:35;13.65;;;7.93;;
78312;SDS011;67568;47.438;21.408;2023-03-21T14:55:04;13.20;;;8.00;;
78312;SDS011;67568;47.438;21.408;2023-03-21T14:57:40;16.00;;;8.02;;
78312;SDS011;67568;47.438;21.408;2023-03-21T15:00:07;13.27;;;7.75;;
78312;SDS011;67568;47.438;21.408;2023-03-21T15:02:48;17.03;;;8.43;;
78312;SDS011;67568;47.438;21.408;2023-03-21T15:07:58;14.50;;;8.73;;
78312;SDS011;67568;47.438;21.408;2023-03-21T15:10:28;15.73;;;8.63;;
78312;SDS011;67568;47.438;21.408;2023-03-21T15:12:57;12.48;;;8.40;;
78312;SDS011;67568;47.438;21.408;2023-03-21T15:15:26;16.40;;;8.63;;
78312;SDS011;67568;47.438;21.408;2023-03-21T15:17:59;15.45;;;9.40;;
78312;SDS011;67568;47.438;21.408;2023-03-21T15:20:30;18.90;;;7.82;;
78312;SDS011;67568;47.438;21.408;2023-03-21T15:23:02;18.80;;;7.95;;
78312;SDS011;67568;47.438;21.408;2023-03-21T15:25:32;16.10;;;8.88;;
78312;SDS011;67568;47.438;21.408;2023-03-21T15:28:01;14.90;;;8.57;;
78312;SDS011;67568;47.438;21.408;2023-03-21T15:30:30;17.83;;;8.85;;
78312;SDS011;67568;47.438;21.408;2023-03-21T15:33:00;15.68;;;7.85;;
78312;SDS011;67568;47.438;21.408;2023-03-21T15:35:42;16.77;;;7.93;;
78312;SDS011;67568;47.438;21.408;2023-03-21T15:41:12;13.70;;;7.90;;
78312;SDS011;67568;47.438;21.408;2023-03-21T15:46:39;14.25;;;8.07;;
78312;SDS011;67568;47.438;21.408;2023-03-21T15:51:39;14.98;;;8.27;;
78312;SDS011;67568;47.438;21.408;2023-03-21T15:54:13;14.17;;;8.07;;
78312;SDS011;67568;47.438;21.408;2023-03-21T15:56:42;14.82;;;8.15;;
78312;SDS011;67568;47.438;21.408;2023-03-21T15:59:11;17.85;;;9.07;;
78312;SDS011;67568;47.438;21.408;2023-03-21T16:01:41;15.65;;;8.13;;
78312;SDS011;67568;47.438;21.408;2023-03-21T16:04:12;13.73;;;8.40;;
78312;SDS011;67568;47.438;21.408;2023-03-21T16:09:40;15.68;;;8.68;;
78312;SDS011;67568;47.438;21.408;2023-03-21T16:12:13;15.57;;;9.10;;
78312;SDS011;67568;47.438;21.408;2023-03-21T16:14:43;16.02;;;8.88;;
78312;SDS011;67568;47.438;21.408;2023-03-21T16:17:46;15.77;;;8.93;;
78312;SDS011;67568;47.438;21.408;2023-03-21T16:20:09;15.47;;;9.47;;
78312;SDS011;67568;47.438;21.408;2023-03-21T16:22:43;13.82;;;8.68;;
78312;SDS011;67568;47.438;21.408;2023-03-21T16:25:09;16.05;;;9.10;;
78312;SDS011;67568;47.438;21.408;2023-03-21T16:27:37;15.50;;;8.88;;
78312;SDS011;67568;47.438;21.408;2023-03-21T16:30:04;15.98;;;8.00;;
78312;SDS011;67568;47.438;21.408;2023-03-21T16:32:31;15.67;;;9.03;;
78312;SDS011;67568;47.438;21.408;2023-03-21T16:34:59;16.50;;;8.88;;
78312;SDS011;67568;47.438;21.408;2023-03-21T16:37:26;16.30;;;8.63;;